Latest Weather Observations for Narrabri

IDN60801

Issued at 5:13 pm EDT Saturday 5 December 2020 (issued every 10 minutes, with the page automatically refreshed every 10 minutes)

About weather observations | Map of weather stations | Latest weather observations for NSW | Other Formats
Station Details ID: 054038 Name: NARRABRI AIRPORT AWS Lat: -30.32 Lon: 149.83 Height: 229.02 m
Data from the previous 72 hours. | See also: Recent months at Narrabri
Date/Time
EDT
Temp
°C
App
Temp
°C
Dew
Point
°C
Rel
Hum
%
Delta-T
°C
Wind Press
QNH
hPa
Press
MSL
hPa
Rain since
9am
mm
Dir  Spd
km/h
Gust
km/h
Spd
kts
Gust
kts
05/05:05pm 31.9 28.2 17.4 42 9.4 NNW 33 63 18 34 1004.9 1003.6 0.2
05/05:00pm 33.0 30.3 18.4 42 9.6 N 30 41 16 22 1004.7 1003.4 0.2
05/04:36pm 32.2 27.7 17.3 41 9.6 N 37 65 20 35 1004.4 1003.1 0.0
05/04:30pm 34.4 29.9 15.3 31 12.0 NNE 33 46 18 25 1004.3 1002.9 0.0
05/04:00pm 36.4 33.0 13.8 26 14.1 N 24 33 13 18 1004.0 1002.6 0.0
05/03:30pm 37.5 34.2 12.8 22 15.2 NW 22 33 12 18 1004.8 1003.5 0.0
05/03:00pm 37.3 34.2 13.3 23 14.9 NNW 22 30 12 16 1005.8 1004.5 0.0
05/02:30pm 36.2 30.7 13.6 25 14.0 NNW 35 46 19 25 1006.7 1005.4 0.0
05/02:00pm 35.2 30.7 13.9 27 13.2 NNW 30 39 16 21 1007.2 1005.8 0.0
05/01:30pm 35.3 31.1 16.1 32 12.3 N 33 43 18 23 1007.7 1006.3 0.0
05/01:00pm 35.0 31.0 16.8 34 11.7 N 33 48 18 26 1008.3 1007.0 0.0
05/12:30pm 36.0 31.0 16.2 31 12.7 N 37 52 20 28 1008.7 1007.4 0.0
05/12:00pm 35.3 30.1 15.6 31 12.5 NNE 37 50 20 27 1009.2 1007.9 0.0
05/11:30am 34.7 29.9 15.6 32 12.1 NNE 35 44 19 24 1009.7 1008.4 0.0
05/11:00am 34.7 30.1 15.1 31 12.3 N 33 48 18 26 1009.8 1008.5 0.0
05/10:30am 34.5 30.2 16.8 34 11.4 N 35 52 19 28 1010.4 1009.1 0.0
05/10:00am 33.9 30.1 17.2 37 10.8 NNE 33 43 18 23 1010.9 1009.6 0.0
05/09:30am 32.7 28.3 15.7 36 10.7 N 33 44 18 24 1010.9 1009.6 0.0
05/09:00am 32.4 28.9 15.4 36 10.7 NNE 28 37 15 20 1010.8 1009.5 0.0
05/08:30am 31.2 29.0 16.0 40 9.6 NNE 22 35 12 19 1010.9 1009.6 0.0
05/08:00am 26.8 29.1 17.8 57 5.7 N 2 7 1 4 1011.1 1009.8 0.0
05/07:30am 25.4 27.0 19.1 68 4.1 NNE 9 26 5 14 1011.4 1010.1 0.0
05/07:00am 24.1 27.8 20.0 78 2.7 CALM 0 0 0 0 1010.7 1009.4 0.0
05/06:30am 22.9 26.2 19.9 83 1.9 SW 2 6 1 3 1010.5 1009.2 0.0
05/06:00am 21.8 24.7 19.0 84 1.8 ESE 2 6 1 3 1010.1 1008.8 0.0
05/05:30am 21.9 24.3 18.9 83 1.9 WNW 4 11 2 6 1010.0 1008.7 0.0
05/05:00am 22.2 24.5 19.4 84 1.8 ENE 6 7 3 4 1009.9 1008.6 0.0
05/04:30am 22.6 25.1 19.0 80 2.3 NNE 4 9 2 5 1009.9 1008.6 0.0
05/04:00am 24.2 25.9 18.6 71 3.6 E 7 15 4 8 1009.8 1008.5 0.0
05/03:30am 23.8 25.0 19.1 75 3.0 SE 11 15 6 8 1009.6 1008.3 0.0
05/03:00am 21.8 23.8 19.2 85 1.7 SSE 7 11 4 6 1009.8 1008.5 0.0
05/02:30am 22.3 25.9 19.8 86 1.6 CALM 0 0 0 0 1009.9 1008.6 0.0
05/02:00am 22.3 25.8 19.5 84 1.8 CALM 0 0 0 0 1010.0 1008.7 0.0
05/01:30am 22.5 26.0 19.5 83 1.9 CALM 0 0 0 0 1010.5 1009.2 0.0
05/01:00am 23.5 27.1 19.8 80 2.4 CALM 0 2 0 1 1010.8 1009.5 0.0
05/12:30am 23.4 25.7 19.8 80 2.3 E 7 11 4 6 1011.0 1009.7 0.0
05/12:00am 23.5 26.3 19.6 79 2.5 ESE 4 9 2 5 1011.5 1010.2 0.0
 
Date/Time
EDT
Temp
°C
App
Temp
°C
Dew
Point
°C
Rel
Hum
%
Delta-T
°C
Wind Press
QNH
hPa
Press
MSL
hPa
Rain since
9am
mm
Dir  Spd
km/h
Gust
km/h
Spd
kts
Gust
kts
04/11:30pm 23.5 27.0 19.6 79 2.5 CALM 0 0 0 0 1011.9 1010.5 0.0
04/11:00pm 24.2 26.4 19.5 75 3.0 NE 7 11 4 6 1011.9 1010.5 0.0
04/10:30pm 24.8 26.4 19.2 71 3.6 NE 9 13 5 7 1011.8 1010.4 0.0
04/10:00pm 24.5 26.4 20.6 79 2.6 NE 11 11 6 6 1011.5 1010.2 0.0
04/09:30pm 25.1 27.3 20.4 75 3.1 NE 9 13 5 7 1011.1 1009.8 0.0
04/09:00pm 25.9 26.4 19.3 67 4.3 ENE 15 17 8 9 1011.1 1009.8 0.0
04/08:30pm 26.3 26.8 18.4 61 5.1 NNE 13 15 7 8 1010.9 1009.6 0.0
04/08:00pm 27.4 28.0 17.8 55 6.1 NNE 11 15 6 8 1011.0 1009.7 0.0
04/07:30pm 28.6 27.6 16.5 48 7.6 NE 17 20 9 11 1010.9 1009.6 0.0
04/07:00pm 29.3 26.7 16.8 47 7.9 NNE 26 33 14 18 1010.7 1009.4 0.0
04/06:30pm 30.0 27.6 16.4 44 8.6 N 24 32 13 17 1010.6 1009.3 0.0
04/06:00pm 28.8 25.4 16.7 48 7.6 N 30 48 16 26 1010.6 1009.3 0.0
04/05:59pm 28.6 24.8 15.8 45 8.0 N 30 48 16 26 1010.5 1009.2 0.0
04/05:54pm 28.7 25.8 15.2 43 8.3 NNE 24 48 13 26 1010.6 1009.3 0.0
04/05:30pm 31.2 30.4 17.1 42 9.0 NE 17 28 9 15 1010.1 1008.8 0.0
04/05:00pm 32.5 32.8 15.9 36 10.5 N 9 20 5 11 1010.3 1009.0 0.0
04/04:30pm 34.4 34.4 15.3 31 12.0 W 9 13 5 7 1010.5 1009.2 0.0
04/04:00pm 35.0 36.2 15.8 31 12.2 W 4 11 2 6 1010.9 1009.6 0.0
04/03:30pm 34.0 34.4 16.4 35 11.2 WNW 9 11 5 6 1011.7 1010.3 0.0
04/03:00pm 34.4 35.0 16.7 34 11.4 W 9 20 5 11 1012.2 1010.9 0.0
04/02:30pm 34.6 34.6 18.2 37 10.8 NW 15 28 8 15 1012.9 1011.6 0.0
04/02:00pm 33.8 33.7 17.9 38 10.4 WNW 15 28 8 15 1013.3 1012.0 0.0
04/01:30pm 33.9 33.5 18.0 39 10.4 NNW 17 28 9 15 1013.9 1012.6 0.0
04/01:00pm 32.3 32.0 17.4 41 9.6 NNW 15 26 8 14 1014.5 1013.2 0.0
04/12:30pm 31.7 30.5 18.3 45 8.7 NNW 22 32 12 17 1015.1 1013.8 0.0
04/12:00pm 31.5 30.1 18.8 46 8.3 N 24 37 13 20 1015.5 1014.2 0.0
04/11:30am 30.3 29.4 18.1 48 7.9 NNW 20 33 11 18 1016.1 1014.9 0.0
04/11:00am 29.8 28.4 18.9 52 7.1 NNW 24 32 13 17 1016.3 1015.0 0.0
04/10:30am 29.2 27.2 17.4 49 7.5 NNW 24 30 13 16 1016.7 1015.4 0.0
04/10:00am 28.7 27.1 16.6 48 7.6 NNW 20 26 11 14 1016.9 1015.6 0.0
04/09:30am 28.3 27.7 17.5 52 6.9 NNW 17 24 9 13 1017.0 1015.7 0.0
04/09:00am 27.8 27.1 15.5 47 7.6 N 13 20 7 11 1017.1 1015.8 39.4
04/08:30am 26.9 25.6 16.8 54 6.3 NNE 19 26 10 14 1016.8 1015.5 39.4
04/08:00am 25.0 23.7 17.2 62 4.9 NNE 20 30 11 16 1016.9 1015.6 39.4
04/07:30am 23.3 26.2 19.0 77 2.8 WSW 2 6 1 3 1016.8 1015.5 39.4
04/07:00am 22.6 25.9 19.0 80 2.3 CALM 0 0 0 0 1016.5 1015.2 39.4
04/06:30am 21.4 24.7 19.1 87 1.5 CALM 0 6 0 3 1016.1 1014.9 39.4
04/06:00am 21.2 24.5 19.1 88 1.3 CALM 0 0 0 0 1016.3 1015.0 39.4
04/05:30am 21.0 23.4 18.8 87 1.4 S 4 6 2 3 1016.0 1014.8 39.4
04/05:00am 21.5 23.0 18.9 85 1.7 S 9 11 5 6 1016.1 1014.9 39.4
04/04:30am 21.6 23.4 18.4 82 2.0 S 6 13 3 7 1015.5 1014.2 39.4
04/04:00am 21.6 23.3 18.6 83 1.9 W 7 9 4 5 1015.5 1014.2 39.4
04/03:30am 21.5 22.8 18.5 83 1.9 WSW 9 9 5 5 1015.3 1014.0 39.4
04/03:00am 21.4 23.1 18.6 84 1.8 W 7 9 4 5 1014.9 1013.6 39.4
04/02:30am 21.6 22.9 18.4 82 2.0 S 9 13 5 7 1014.9 1013.6 39.4
04/02:00am 21.8 23.0 18.2 80 2.3 SSE 9 11 5 6 1015.2 1013.9 39.4
04/01:30am 22.3 21.1 17.4 74 3.1 ENE 20 28 11 15 1015.7 1014.4 39.4
04/01:00am 21.8 20.6 17.6 77 2.6 ENE 20 28 11 15 1016.1 1014.9 39.4
04/12:30am 21.4 19.2 17.8 80 2.2 NE 26 35 14 19 1016.8 1015.5 39.4
04/12:00am 21.5 18.9 18.7 84 1.8 NE 30 41 16 22 1017.3 1016.0 39.4
 
Date/Time
EDT
Temp
°C
App
Temp
°C
Dew
Point
°C
Rel
Hum
%
Delta-T
°C
Wind Press
QNH
hPa
Press
MSL
hPa
Rain since
9am
mm
Dir  Spd
km/h
Gust
km/h
Spd
kts
Gust
kts
03/11:42pm 21.1 19.7 18.9 87 1.4 NNE 24 35 13 19 1017.3 1016.0 39.2
03/11:30pm 21.2 18.2 19.1 88 1.3 NNW 33 48 18 26 1018.6 1017.3 39.2
03/11:19pm 21.4 21.1 19.1 87 1.5 W 19 48 10 26 1018.9 1017.6 37.0
03/11:00pm 21.1 22.3 19.0 88 1.3 SSW 11 15 6 8 1016.8 1015.5 37.0
03/10:30pm 21.0 21.7 18.8 87 1.4 E 13 19 7 10 1016.5 1015.2 37.0
03/10:00pm 20.8 18.2 18.6 87 1.4 ENE 30 37 16 20 1016.5 1015.2 37.0
03/09:30pm 20.0 18.0 18.3 90 1.1 E 26 33 14 18 1017.3 1016.0 36.2
03/09:27pm 19.9 18.2 18.2 90 1.1 E 24 33 13 18 1017.4 1016.1 36.2
03/09:00pm 19.8 21.0 18.3 91 0.9 SE 9 19 5 10 1019.4 1018.1 33.8
03/08:46pm 19.8 18.5 18.1 90 1.1 SE 22 30 12 16 1020.5 1019.3 27.8
03/08:30pm 21.0 20.6 18.9 88 1.3 SE 19 30 10 16 1018.5 1017.2 16.2
03/08:00pm 20.0 18.8 18.3 90 1.1 ESE 22 35 12 19 1017.7 1016.4 16.2
03/07:30pm 19.6 17.5 18.1 91 0.9 SE 26 37 14 20 1017.5 1016.2 16.2
03/07:09pm 20.1 16.5 18.6 91 0.9 S 35 61 19 33 1019.5 1018.2 9.8
03/07:00pm 20.0 13.1 18.5 91 0.9 S 52 72 28 39 1017.5 1016.2 8.4
03/06:40pm 21.4 15.5 18.0 81 2.1 SSW 46 95 25 51 1015.6 1014.3 1.4
03/06:38pm 22.7 19.3 17.6 73 3.2 S 32 76 17 41 1016.1 1014.9 1.0
03/06:37pm 23.3 20.6 17.5 70 3.6 S 28 74 15 40 1016.5 1015.2 0.8
03/06:35pm 25.2 24.4 17.9 64 4.6 SSE 19 72 10 39 1016.4 1015.1 0.8
03/06:30pm 27.7 27.6 16.9 51 6.8 SE 13 20 7 11 1014.6 1013.3 0.0
03/06:00pm 27.6 25.2 15.3 47 7.6 ESE 22 32 12 17 1014.0 1012.7 0.0
03/05:30pm 28.3 24.1 17.2 51 7.0 SE 35 59 19 32 1013.5 1012.2 0.0
03/05:27pm 27.4 22.6 16.7 52 6.7 SSE 37 59 20 32 1013.5 1012.2 0.0
03/05:22pm 27.3 21.2 15.3 48 7.4 SSE 41 59 22 32 1013.5 1012.2 0.0
03/05:11pm 29.5 27.0 14.1 39 9.4 WSW 20 59 11 32 1013.5 1012.2 0.0
03/05:09pm 31.7 30.8 14.8 36 10.5 W 13 43 7 23 1013.4 1012.1 0.0
03/05:00pm 36.2 35.7 15.9 30 13.0 WNW 13 24 7 13 1013.4 1012.1 0.0
03/04:30pm 36.5 35.3 16.1 29 13.1 NW 17 30 9 16 1013.8 1012.5 0.0
03/04:00pm 35.6 34.9 15.3 29 12.8 NW 13 20 7 11 1014.3 1013.0 0.0
03/03:30pm 35.7 35.0 15.4 29 12.9 NW 13 20 7 11 1014.9 1013.6 0.0
03/03:00pm 35.7 36.3 15.9 30 12.6 NNE 7 17 4 9 1015.5 1014.2 0.0
03/02:30pm 35.6 35.1 15.9 31 12.6 WNW 13 26 7 14 1015.9 1014.6 0.0
03/02:00pm 35.8 35.5 16.5 31 12.4 NW 13 24 7 13 1016.4 1015.1 0.0
03/01:30pm 35.5 35.9 16.3 32 12.3 NW 9 20 5 11 1016.7 1015.4 0.0
03/01:00pm 34.4 33.9 15.8 33 11.8 WNW 13 24 7 13 1017.0 1015.7 0.0
03/12:30pm 35.5 34.0 16.3 32 12.3 NNW 19 28 10 15 1017.6 1016.3 0.0
03/12:00pm 34.4 32.0 15.3 31 12.0 NW 22 32 12 17 1017.7 1016.4 0.0
03/11:30am 35.0 32.6 14.3 29 12.9 NNW 20 35 11 19 1017.9 1016.6 0.0
03/11:00am 33.1 31.2 14.2 32 11.6 WSW 17 26 9 14 1018.1 1016.8 0.0
03/10:30am 32.0 30.9 14.2 34 10.9 WSW 13 20 7 11 1018.0 1016.7 0.0
03/10:00am 30.3 30.2 14.0 37 9.9 ENE 7 15 4 8 1017.8 1016.5 0.0
03/09:30am 29.1 29.4 14.5 41 8.9 SW 6 13 3 7 1017.5 1016.2 0.0
03/09:00am 27.4 27.1 14.4 45 7.9 SSE 9 13 5 7 1017.8 1016.5 0.0
03/08:30am 25.6 24.4 14.1 49 6.9 SSE 13 19 7 10 1017.9 1016.6 0.0
03/08:00am 24.2 22.6 14.0 53 6.0 SE 15 20 8 11 1018.0 1016.7 0.0
03/07:30am 23.0 20.8 14.3 58 5.2 SSE 19 26 10 14 1017.7 1016.4 0.0
03/07:00am 22.0 20.2 14.4 62 4.5 SSE 17 24 9 13 1017.4 1016.1 0.0
03/06:30am 21.5 19.7 14.4 64 4.2 SSE 17 24 9 13 1017.2 1015.9 0.0
03/06:00am 20.9 19.4 14.3 66 3.9 SSE 15 22 8 12 1017.3 1016.0 0.0
03/05:30am 21.0 19.2 14.4 66 3.9 SSE 17 22 9 12 1016.8 1015.5 0.0
03/05:00am 21.1 21.1 14.3 65 4.0 SSE 7 17 4 9 1016.6 1015.3 0.0
03/04:30am 21.4 20.8 14.6 65 4.0 SSE 11 20 6 11 1016.6 1015.3 0.0
03/04:00am 21.9 20.2 14.8 64 4.2 SSE 17 24 9 13 1016.4 1015.1 0.0
03/03:30am 22.3 20.3 14.9 63 4.4 SSE 19 24 10 13 1016.4 1015.1 0.0
03/03:00am 22.6 21.0 15.0 62 4.6 SSE 17 24 9 13 1016.5 1015.2 0.0
03/02:30am 23.2 21.6 15.0 60 4.9 SE 17 20 9 11 1016.7 1015.4 0.0
03/02:00am 23.9 23.2 15.4 59 5.2 SSE 13 19 7 10 1017.0 1015.7 0.0
03/01:30am 24.5 23.2 15.7 58 5.4 SE 17 26 9 14 1017.4 1016.1 0.0
03/01:00am 25.0 22.8 15.9 57 5.6 SSE 22 30 12 16 1017.6 1016.3 0.0
03/12:30am 25.3 23.1 15.9 56 5.8 SSE 22 28 12 15 1017.4 1016.1 0.0
03/12:00am 25.7 24.0 15.7 54 6.1 SSE 19 26 10 14 1017.2 1015.9 0.0
 
Date/Time
EDT
Temp
°C
App
Temp
°C
Dew
Point
°C
Rel
Hum
%
Delta-T
°C
Wind Press
QNH
hPa
Press
MSL
hPa
Rain since
9am
mm
Dir  Spd
km/h
Gust
km/h
Spd
kts
Gust
kts
02/11:30pm 26.2 23.6 15.9 53 6.4 SSE 24 32 13 17 1017.0 1015.7 0.0
02/11:00pm 26.8 23.8 15.8 51 6.8 SSE 26 35 14 19 1017.0 1015.7 0.0
02/10:30pm 27.2 24.6 15.9 50 7.0 SSE 24 37 13 20 1016.5 1015.2 0.0
02/10:00pm 28.0 24.5 15.6 46 7.7 SSE 28 37 15 20 1016.1 1014.9 0.0
02/09:30pm 28.7 25.2 15.6 45 8.1 SSE 28 46 15 25 1015.7 1014.4 0.0
02/09:27pm 28.8 25.4 15.7 45 8.1 SSE 28 46 15 25 1015.7 1014.4 0.0
02/09:00pm 29.5 25.9 15.2 41 8.8 SSE 28 35 15 19 1015.4 1014.1 0.0
02/08:30pm 30.6 25.6 15.1 39 9.6 SSE 35 48 19 26 1014.7 1013.4 0.0
02/08:07pm 32.3 28.0 15.3 35 10.6 SE 32 50 17 27 1014.2 1012.9 0.0
02/08:00pm 32.6 28.0 15.1 34 10.9 SE 33 50 18 27 1014.1 1012.8 0.0
02/07:33pm 35.2 31.9 15.0 30 12.7 SE 26 46 14 25 1013.2 1011.9 0.0
02/07:30pm 35.7 32.7 14.9 29 13.1 SE 24 41 13 22 1013.1 1011.8 0.0
02/07:00pm 40.7 35.7 8.0 14 19.0 SW 24 33 13 18 1011.8 1010.4 0.0
02/06:30pm 41.1 34.9 6.0 12 19.8 SW 28 37 15 20 1011.2 1009.9 0.0
02/06:00pm 41.8 35.7 6.6 12 20.1 WSW 28 37 15 20 1010.7 1009.4 0.0
02/05:30pm 42.1 36.0 6.8 12 20.3 WSW 28 35 15 19 1010.4 1009.1 0.0

Other formats

Comma delimited format used in spreadsheet applications
http://www.bom.gov.au/fwo/IDN60801/IDN60801.95734.axf

JavaScript Object Notation format (JSON) in row-major order
http://www.bom.gov.au/fwo/IDN60801/IDN60801.95734.json

Data quality

Most of these data are generated automatically and are frequently updated. Quality checks on data are not normally performed. It is possible for incorrect values to appear. Refer to information at About Latest Weather Observations and please check the disclaimer before using these data.